Latest Weather Observations for Mount Wellington

IDT60801

Issued at 8:05 am EST Sunday 31 August 2014 (issued every 30 minutes, with the page automatically refreshed every 10 minutes)

About weather observations | Map of weather stations | Latest weather observations for TAS | Other Formats
Station Details ID: 094087 Name: MOUNT WELLINGTON Lat: -42.90 Lon: 147.24 Height: 1260.47 m
Data from the previous 72 hours. | See also: Recent months at Mount Wellington
Date/Time
EST
Temp
°C
App
Temp
°C
Dew
Point
Rel
Hum
%
Delta-T
°C
Wind Press
QNH
hPa
Press
MSL
hPa
Rain
since 9 am
mm
Dir
 
Spd
km/h
Gust
km/h
Spd
kts
Gust
kts
31/08:00am 8.6 0.6 -2.6 45 4.5 W 30 39 16 21 - - 0.0
31/07:30am 7.1 -1.3 -2.1 52 3.7 W 32 37 17 20 - - 0.0
31/07:00am 6.3 -2.5 -0.9 60 3.0 WSW 35 41 19 22 - - 0.0
31/06:30am 7.1 -2.1 -1.6 54 3.5 WSW 37 43 20 23 - - 0.0
31/06:00am 5.7 -2.8 -7.2 39 4.5 WSW 30 37 16 20 - - 0.0
31/05:30am 5.0 -2.9 -8.8 36 4.6 WSW 26 30 14 16 - - 0.0
31/05:00am 4.3 -3.0 -6.6 45 3.8 WSW 24 28 13 15 - - 0.0
31/04:30am 6.2 -2.2 -10.1 30 5.3 W 28 35 15 19 - - 0.0
31/04:00am 3.2 -5.3 -3.4 62 2.5 W 32 41 17 22 - - 0.0
31/03:30am 1.8 -6.8 -2.7 72 1.7 W 33 44 18 24 - - 0.0
31/03:00am 2.3 -6.2 -3.6 65 2.2 WNW 32 41 17 22 - - 0.0
31/02:30am 4.0 -4.8 -4.7 53 3.2 WNW 33 43 18 23 - - 0.0
31/02:00am 2.8 -6.1 -4.9 57 2.7 W 33 44 18 24 - - 0.0
31/01:30am 3.2 -6.6 -6.2 50 3.4 WNW 37 46 20 25 - - 0.0
31/01:00am 3.7 -6.2 -8.0 42 4.1 WNW 37 54 20 29 - - 0.0
31/12:30am 2.4 -6.6 -6.4 52 3.1 WNW 33 43 18 23 - - 0.0
31/12:00am 3.0 -7.1 -9.6 39 4.2 WNW 37 46 20 25 - - 0.0
 
Date/Time
EST
Temp
°C
App
Temp
°C
Dew
Point
Rel
Hum
%
Delta-T
°C
Wind Press
QNH
hPa
Press
MSL
hPa
Rain
since 9 am
mm
Dir
 
Spd
km/h
Gust
km/h
Spd
kts
Gust
kts
30/11:30pm 2.5 -6.6 -7.4 48 3.5 WNW 33 43 18 23 - - 0.0
30/11:00pm 2.6 -6.6 -4.8 58 2.8 NW 35 44 19 24 - - 0.0
30/10:30pm 2.5 -6.6 -4.0 62 2.4 NW 35 41 19 22 - - 0.0
30/10:00pm 2.7 -6.0 -0.4 80 1.2 NW 35 41 19 22 - - 0.0
30/09:30pm 3.0 -6.3 0.4 83 1.1 NW 39 46 21 25 - - 0.0
30/09:00pm 3.6 -5.7 0.7 81 1.2 NW 39 48 21 26 - - 0.0
30/08:30pm 4.0 -4.9 1.0 81 1.3 NW 37 44 20 24 - - 0.0
30/08:00pm 4.3 -3.7 1.7 83 1.1 NNW 33 43 18 23 - - 0.0
30/07:30pm 4.1 -2.2 1.8 85 1.0 NNW 24 35 13 19 - - 0.0
30/07:00pm 4.2 -2.4 2.2 87 0.9 N 26 35 14 19 - - 0.0
30/06:30pm 4.3 -2.2 2.5 88 0.8 N 26 35 14 19 - - 0.0
30/06:00pm 4.8 -0.9 2.7 86 0.9 N 22 28 12 15 - - 0.0
30/05:30pm 5.2 -0.5 2.7 84 1.1 N 22 33 12 18 - - 0.0
30/05:00pm 5.5 1.2 3.3 86 1.0 N 15 20 8 11 - - 0.0
30/04:30pm 5.7 1.1 3.7 87 0.9 N 17 22 9 12 - - 0.0
30/04:00pm 6.3 1.1 3.6 83 1.2 N 20 26 11 14 - - 0.0
30/03:30pm 6.4 0.4 3.6 82 1.3 N 24 32 13 17 - - 0.0
30/03:00pm 6.2 0.6 3.7 84 1.1 N 22 30 12 16 - - 0.0
30/02:30pm 6.0 0.1 3.7 85 1.1 N 24 32 13 17 - - 0.0
30/02:00pm 6.0 -0.7 3.5 84 1.1 N 28 35 15 19 - - 0.0
30/01:30pm 6.4 0.4 3.6 82 1.3 N 24 33 13 18 - - 0.0
30/01:00pm 6.4 -0.3 3.7 83 1.2 N 28 35 15 19 - - 0.0
30/12:30pm 6.0 -1.1 3.3 83 1.2 N 30 35 16 19 - - 0.0
30/12:00pm 6.6 0.1 2.9 77 1.7 N 26 35 14 19 - - 0.0
30/11:30am 6.5 0.0 2.4 75 1.8 N 26 37 14 20 - - 0.0
30/11:00am 6.6 -0.1 1.7 71 2.1 N 26 35 14 19 - - 0.0
30/10:30am 7.0 -0.2 0.9 65 2.6 N 28 37 15 20 - - 0.0
30/10:00am 6.6 -0.5 1.1 68 2.4 N 28 35 15 19 - - 0.0
30/09:30am 5.9 -0.9 1.1 71 2.1 N 26 32 14 17 - - 0.0
30/09:00am 5.7 -1.1 0.9 71 2.0 N 26 32 14 17 - - 0.0
30/08:30am 5.1 0.1 1.4 77 1.6 N 17 22 9 12 - - 0.0
30/08:00am 4.3 -0.4 1.2 80 1.3 N 15 19 8 10 - - 0.0
30/07:30am 4.7 -0.1 0.3 73 1.8 N 15 20 8 11 - - 0.0
30/07:00am 3.9 -1.3 0.4 78 1.4 N 17 20 9 11 - - 0.0
30/06:30am 3.4 -1.3 0.6 82 1.2 N 15 19 8 10 - - 0.0
30/06:00am 3.7 -1.0 0.6 80 1.3 N 15 19 8 10 - - 0.0
30/05:30am 3.6 -0.9 -0.2 76 1.5 N 13 15 7 8 - - 0.0
30/05:00am 3.6 -0.9 -0.4 75 1.6 NNW 13 15 7 8 - - 0.0
30/04:30am 4.1 0.7 -0.7 71 1.9 NNW 7 7 4 4 - - 0.0
30/04:00am 4.0 0.9 0.3 77 1.5 NNW 6 7 3 4 - - 0.0
30/03:30am 4.2 1.2 0.5 77 1.5 N 6 7 3 4 - - 0.0
30/03:00am 4.5 1.2 -0.1 72 1.9 N 7 9 4 5 - - 0.0
30/02:30am 4.4 1.4 1.1 79 1.4 N 6 6 3 3 - - 0.0
30/02:00am 4.4 1.2 0.7 77 1.6 NNW 7 7 4 4 - - 0.0
30/01:30am 4.2 1.0 0.7 78 1.5 NNW 7 7 4 4 - - 0.0
30/01:00am 4.5 2.0 1.7 82 1.2 NNW 4 6 2 3 - - 0.0
30/12:30am 4.7 3.0 1.7 81 1.3 CALM 0 6 0 3 - - 0.0
30/12:00am 4.9 3.2 1.7 80 1.4 CALM 0 0 0 0 - - 0.0
 
Date/Time
EST
Temp
°C
App
Temp
°C
Dew
Point
Rel
Hum
%
Delta-T
°C
Wind Press
QNH
hPa
Press
MSL
hPa
Rain
since 9 am
mm
Dir
 
Spd
km/h
Gust
km/h
Spd
kts
Gust
kts
29/11:30pm 5.2 3.0 1.1 75 1.7 ESE 2 6 1 3 - - 0.0
29/11:00pm 5.0 2.0 1.1 76 1.7 SSE 6 7 3 4 - - 0.0
29/10:30pm 5.5 2.7 1.8 77 1.6 S 6 7 3 4 - - 0.0
29/10:00pm 4.7 1.9 1.9 82 1.2 S 6 7 3 4 - - 0.0
29/09:30pm 4.3 1.8 1.8 84 1.1 WSW 4 6 2 3 - - 0.0
29/09:00pm 4.0 1.6 1.9 86 0.9 W 4 6 2 3 - - 0.0
29/08:30pm 4.4 1.9 1.6 82 1.2 WSW 4 6 2 3 - - 0.0
29/08:00pm 3.7 0.8 1.4 85 1.0 WSW 6 7 3 4 - - 0.0
29/07:30pm 3.7 0.5 0.9 82 1.2 W 7 7 4 4 - - 0.0
29/07:00pm 4.5 1.8 2.7 88 0.8 WNW 6 6 3 3 - - 0.0
29/06:30pm 4.2 1.9 2.7 90 0.7 W 4 6 2 3 - - 0.0
29/06:00pm 4.3 2.0 2.7 89 0.7 W 4 6 2 3 - - 0.0
29/05:30pm 4.9 2.2 2.6 85 1.0 NW 6 7 3 4 - - 0.0
29/05:00pm 5.6 3.0 3.3 85 1.0 NNW 6 7 3 4 - - 0.0
29/04:30pm 6.2 3.5 3.5 83 1.2 N 7 9 4 5 - - 0.0
29/04:00pm 6.8 3.7 3.8 81 1.4 N 9 13 5 7 - - 0.0
29/03:30pm 6.1 3.0 3.8 85 1.1 N 9 13 5 7 - - 0.0
29/03:00pm 6.3 3.3 4.0 85 1.1 N 9 17 5 9 - - 0.0
29/02:30pm 5.9 2.9 4.2 89 0.8 N 9 15 5 8 - - 0.0
29/02:00pm 5.9 2.9 4.1 88 0.8 N 9 15 5 8 - - 0.0
29/01:30pm 6.4 3.3 3.7 83 1.2 N 9 17 5 9 - - 0.0
29/01:00pm 7.1 4.6 4.8 85 1.1 N 7 13 4 7 - - 0.0
29/12:30pm 7.3 4.8 4.8 84 1.2 NNE 7 13 4 7 - - 0.0
29/12:00pm 6.7 3.9 3.0 77 1.7 N 7 13 4 7 - - 0.0
29/11:30am 6.5 4.0 4.8 89 0.8 NE 7 11 4 6 - - 0.0
29/11:00am 5.6 3.6 4.4 92 0.6 E 4 7 2 4 - - 0.0
29/10:30am 5.8 3.2 4.4 91 0.6 NNE 7 13 4 7 - - 0.0
29/10:00am 5.5 3.4 4.0 90 0.7 E 4 9 2 5 - - 0.0
29/09:30am 4.7 2.0 3.5 92 0.5 NE 7 11 4 6 - - 0.0
29/09:00am 4.9 2.4 3.7 92 0.5 NE 6 9 3 5 - - 0.0
29/08:30am 4.9 2.4 4.0 94 0.4 NNE 6 11 3 6 - - 0.0
29/08:00am 4.7 2.2 3.8 94 0.4 ENE 6 9 3 5 - - 0.0
29/07:30am 3.4 0.7 2.7 95 0.3 ESE 6 7 3 4 - - 0.0
29/07:00am 2.9 0.1 1.9 93 0.4 SE 6 6 3 3 - - 0.0
29/06:30am 3.6 1.3 2.6 93 0.4 ENE 4 6 2 3 - - 0.0
29/06:00am 3.8 1.9 2.8 93 0.4 ENE 2 6 1 3 - - 0.0
29/05:30am 3.3 0.9 2.4 94 0.4 SW 4 6 2 3 - - 0.0
29/05:00am 3.3 0.7 1.2 86 0.9 SW 4 6 2 3 - - 0.0
29/04:30am 3.1 0.2 1.2 87 0.8 SW 6 7 3 4 - - 0.0
29/04:00am 2.7 -0.4 1.1 89 0.7 SW 7 9 4 5 - - 0.0
29/03:30am 2.9 -0.1 2.0 94 0.4 WSW 7 9 4 5 - - 0.0
29/03:00am 2.8 0.1 2.4 97 0.2 SW 6 7 3 4 - - 0.0
29/02:30am 2.6 -1.2 2.0 96 0.3 WSW 11 15 6 8 - - 0.0
29/02:00am 3.9 1.2 2.6 91 0.6 W 6 7 3 4 - - 0.0
29/01:30am 3.9 0.9 1.8 86 0.9 WNW 7 9 4 5 - - 0.0
29/01:00am 3.7 0.4 2.5 92 0.5 WNW 9 11 5 6 - - 0.0
29/12:30am 4.0 1.0 2.0 87 0.9 NW 7 9 4 5 - - 0.0
29/12:00am 4.5 1.0 3.3 92 0.5 NNW 11 13 6 7 - - 0.0
 
Date/Time
EST
Temp
°C
App
Temp
°C
Dew
Point
Rel
Hum
%
Delta-T
°C
Wind Press
QNH
hPa
Press
MSL
hPa
Rain
since 9 am
mm
Dir
 
Spd
km/h
Gust
km/h
Spd
kts
Gust
kts
28/11:30pm 3.9 0.7 3.2 95 0.3 NW 9 11 5 6 - - 0.0
28/11:00pm 4.3 1.2 3.6 95 0.3 NNW 9 13 5 7 - - 0.0
28/10:30pm 4.4 1.3 3.8 96 0.3 NNW 9 13 5 7 - - 0.0
28/10:00pm 4.7 1.0 4.3 97 0.2 N 13 17 7 9 - - 0.0
28/09:30pm 4.4 1.4 4.0 97 0.2 N 9 11 5 6 - - 0.0
28/09:00pm 4.3 1.6 3.9 97 0.2 N 7 9 4 5 - - 0.0
28/08:30pm 4.4 1.8 4.0 97 0.2 N 7 9 4 5 - - 0.0
28/08:00pm 4.4 1.9 4.0 97 0.2 N 6 7 3 4 - - 0.0
28/07:30pm 4.4 1.9 3.8 96 0.3 N 6 7 3 4 - - 0.0
28/07:00pm 4.9 2.5 4.2 95 0.3 N 6 7 3 4 - - 0.0
28/06:30pm 4.3 1.6 2.8 90 0.7 N 6 7 3 4 - - 0.0
28/06:00pm 4.6 1.9 2.8 88 0.8 N 6 6 3 3 - - 0.0
28/05:30pm 5.1 2.4 2.6 84 1.1 NNW 6 6 3 3 - - 0.0
28/05:00pm 6.1 2.6 1.4 72 2.0 NNW 9 13 5 7 - - 0.0
28/04:30pm 6.4 2.6 1.5 71 2.1 NW 11 15 6 8 - - 0.0
28/04:00pm 6.5 3.4 3.5 81 1.4 NNW 9 13 5 7 - - 0.0
28/03:30pm 6.4 3.4 3.9 84 1.2 N 9 13 5 7 - - 0.0
28/03:00pm 7.0 4.1 4.7 85 1.1 N 9 13 5 7 - - 0.0
28/02:30pm 6.0 3.6 4.2 88 0.8 N 6 9 3 5 - - 0.0
28/02:00pm 6.6 4.3 4.6 87 0.9 N 6 11 3 6 - - 0.0
28/01:30pm 7.5 5.1 5.3 86 1.1 NNW 7 11 4 6 - - 0.0
28/01:00pm 8.6 5.6 4.2 74 2.1 NNW 9 13 5 7 - - 0.0
28/12:30pm 8.4 4.3 -0.4 54 3.7 N 11 20 6 11 - - 0.0
28/12:00pm 5.7 3.1 4.3 91 0.6 N 7 11 4 6 - - 0.0
28/11:30am 7.5 4.2 4.6 82 1.4 NNW 11 19 6 10 - - 0.0
28/11:00am 5.5 2.6 4.5 93 0.5 N 9 17 5 9 - - 0.0
28/10:30am 6.0 2.0 0.6 68 2.3 N 11 15 6 8 - - 0.0
28/10:00am 5.8 2.3 1.0 71 2.1 N 9 15 5 8 - - 0.0
28/09:30am 6.5 2.5 0.8 67 2.4 N 11 17 6 9 - - 0.0
28/09:00am 6.4 1.4 -1.2 58 3.1 N 15 19 8 10 - - 0.0
28/08:30am 5.6 2.5 3.8 88 0.8 N 9 13 5 7 - - 0.0

Other Formats:

Comma delimited format used in spreadsheet applications
http://www.bom.gov.au/fwo/IDT60801/IDT60801.95979.axf

JavaScript Object Notation format (JSON) in row-major order
http://www.bom.gov.au/fwo/IDT60801/IDT60801.95979.json